»·PEaware :: DAL1275 KLAX-KLAS

DAL1275 :: KLAX-KLAS

FLIGHT INFORMATION

Flight Status: Arrived
Operator:
Delta Air Lines
More flights by this operator :: More flights under this callsign
Pilot: Jac C. (16067)
Aircraft: MCDONNELL-DOUGLAS MD-88
(MD88)
More flights by this aircraft type
Origin: KLAX Los Angeles Intl
United States
Destination: KLAS McCarran Intl
United States
More flights between these airports :: More routes between these airports
Route: +ORCKA2 MISEN KEPEC6
File this flight plan on PilotEdge
Remarks:
Altitude:
(Current/Filed)
33,000ft
Speed:
(Current/Filed)
448kts
Departed: 14-Feb-18 02:25 PM
Arrived: 14-Feb-18 03:17 PM
Distance/Time
Traveled:
206nm/0:52
Distance/Time
To Go:
Arrived

Flight Plot

Page will automatically refresh every two minutes.

Flight plan parsing failed; only flown route is shown


Map Options




Map Legend


Flown Route
Filed Route
Departure Airport
Arrival Airport
Navaid (VOR, NDB)
Fix

Horizontal Profiles

Position Reports

Time Latitude Longitude Heading Altitude Ground
Speed
14-Feb-18 13:52 33.940104 -118.401329 308 117ft 0kts
14-Feb-18 13:53 33.940104 -118.401329 308 117ft 0kts
14-Feb-18 13:54 33.940104 -118.401329 308 117ft 0kts
14-Feb-18 13:55 33.940104 -118.401329 308 117ft 0kts
14-Feb-18 13:56 33.940104 -118.401329 308 117ft 0kts
14-Feb-18 13:57 33.940104 -118.401329 308 117ft 0kts
14-Feb-18 13:58 33.940104 -118.401329 308 117ft 0kts
14-Feb-18 13:59 33.940104 -118.401329 308 117ft 0kts
14-Feb-18 14:00 33.940104 -118.401329 308 117ft 0kts
14-Feb-18 14:01 33.940104 -118.401329 308 117ft 0kts
14-Feb-18 14:02 33.940104 -118.401329 308 117ft 0kts
14-Feb-18 14:03 33.940104 -118.401329 308 117ft 0kts
14-Feb-18 14:04 33.940104 -118.401329 308 117ft 0kts
14-Feb-18 14:05 33.940104 -118.401329 308 117ft 0kts
14-Feb-18 14:06 33.940104 -118.401329 308 117ft 0kts
14-Feb-18 14:07 33.940104 -118.401329 308 117ft 0kts
14-Feb-18 14:08 33.940104 -118.401329 308 117ft 0kts
14-Feb-18 14:09 33.940104 -118.401329 308 117ft 0kts
14-Feb-18 14:10 33.940104 -118.401329 308 117ft 0kts
14-Feb-18 14:11 33.940104 -118.401329 308 117ft 0kts
14-Feb-18 14:12 33.940104 -118.401329 308 117ft 0kts
14-Feb-18 14:13 33.940104 -118.401329 308 117ft 0kts
14-Feb-18 14:14 33.940104 -118.401329 308 117ft 0kts
14-Feb-18 14:15 33.940104 -118.401329 308 117ft 0kts
14-Feb-18 14:16 33.940104 -118.401329 308 117ft 0kts
14-Feb-18 14:17 33.940104 -118.401329 308 117ft 0kts
14-Feb-18 14:18 33.940104 -118.401329 308 117ft 0kts
14-Feb-18 14:19 33.939743 -118.401152 12 117ft 2kts
14-Feb-18 14:20 33.939425 -118.401598 88 117ft 0kts
14-Feb-18 14:21 33.939425 -118.401598 88 117ft 0kts
14-Feb-18 14:22 33.939425 -118.401598 88 117ft 0kts
14-Feb-18 14:23 33.939483 -118.401106 81 116ft 6kts
14-Feb-18 14:24 33.939813 -118.397875 83 111ft 11kts
14-Feb-18 14:25 33.940219 -118.393842 83 105ft 13kts
14-Feb-18 14:26 33.940566 -118.390453 86 102ft 11kts
14-Feb-18 14:27 33.940931 -118.386134 83 101ft 12kts
14-Feb-18 14:28 33.940562 -118.382343 85 98ft 8kts
14-Feb-18 14:29 33.940687 -118.380725 108 98ft 0kts
14-Feb-18 14:30 33.940687 -118.380725 108 98ft 0kts
14-Feb-18 14:31 33.939782 -118.380762 262 98ft 10kts
14-Feb-18 14:32 33.936668 -118.411832 262 328ft 159kts
14-Feb-18 14:33 33.929560 -118.458080 261 1666ft 187kts
14-Feb-18 14:34 33.910124 -118.519522 247 3669ft 222kts
14-Feb-18 14:35 33.884194 -118.593658 247 5921ft 252kts
14-Feb-18 14:36 33.845866 -118.673953 223 6584ft 336kts
14-Feb-18 14:37 33.763022 -118.685393 161 10528ft 294kts
14-Feb-18 14:38 33.726117 -118.604790 73 12670ft 326kts
14-Feb-18 14:39 33.779790 -118.517759 48 15060ft 325kts
14-Feb-18 14:40 33.822659 -118.457141 49 15471ft 368kts
14-Feb-18 14:41 33.890542 -118.358676 49 16933ft 395kts
14-Feb-18 14:42 33.960178 -118.257418 50 18536ft 411kts
14-Feb-18 14:43 34.033637 -118.150699 50 19967ft 430kts
14-Feb-18 14:44 34.110763 -118.038780 50 21328ft 448kts
14-Feb-18 14:45 34.191786 -117.921356 49 22617ft 464kts
14-Feb-18 14:46 34.275383 -117.800395 49 24062ft 474kts
14-Feb-18 14:47 34.360604 -117.675726 52 25227ft 490kts
14-Feb-18 14:48 34.439935 -117.540432 53 26526ft 500kts
14-Feb-18 14:49 34.521107 -117.402273 52 27743ft 508kts
14-Feb-18 14:50 34.603669 -117.262040 53 28784ft 516kts
14-Feb-18 14:51 34.686807 -117.121117 52 29129ft 515kts
14-Feb-18 14:52 34.770590 -116.979322 52 29130ft 517kts
14-Feb-18 14:53 34.854376 -116.837837 51 29106ft 515kts
14-Feb-18 14:54 34.937721 -116.696289 53 29110ft 515kts
14-Feb-18 14:55 35.016586 -116.555791 52 28878ft 495kts
14-Feb-18 14:56 35.099691 -116.411170 47 29553ft 515kts
14-Feb-18 14:57 35.195010 -116.287079 41 28344ft 515kts
14-Feb-18 14:58 35.293387 -116.162607 41 25817ft 503kts
14-Feb-18 14:59 35.388251 -116.042525 41 22786ft 478kts
14-Feb-18 15:00 35.480283 -115.926191 43 19649ft 477kts
14-Feb-18 15:01 35.568174 -115.815136 43 16413ft 434kts
14-Feb-18 15:02 35.648746 -115.713489 44 13211ft 398kts
14-Feb-18 15:03 35.720538 -115.622162 44 12736ft 357kts
14-Feb-18 15:04 35.802575 -115.568421 354 12840ft 342kts
14-Feb-18 15:05 35.896515 -115.567032 358 12969ft 326kts
14-Feb-18 15:06 35.978766 -115.545167 47 12893ft 300kts
14-Feb-18 15:07 36.007177 -115.455070 68 11854ft 278kts
14-Feb-18 15:08 36.031674 -115.363537 86 10908ft 280kts
14-Feb-18 15:09 36.023946 -115.269836 98 9801ft 273kts
14-Feb-18 15:10 36.016726 -115.178133 95 8824ft 259kts
14-Feb-18 15:11 36.011011 -115.094759 95 8127ft 235kts
14-Feb-18 15:12 36.006011 -115.014350 94 7263ft 234kts
14-Feb-18 15:13 36.001381 -114.948230 94 6425ft 231kts
14-Feb-18 15:14 35.996507 -114.858183 94 5323ft 222kts
14-Feb-18 15:15 35.993612 -114.794785 94 5013ft 221kts
14-Feb-18 15:16 36.007645 -114.716661 13 4978ft 219kts
14-Feb-18 15:17 36.044284 -114.768218 291 4984ft 224kts
14-Feb-18 15:18 36.065617 -114.841160 291 4957ft 229kts
14-Feb-18 15:19 36.080413 -114.904286 269 5095ft 231kts
14-Feb-18 15:20 36.077989 -114.977224 265 4333ft 177kts
14-Feb-18 15:21 36.075557 -115.034279 264 3325ft 158kts
14-Feb-18 15:22 36.073920 -115.089347 270 2581ft 160kts
14-Feb-18 15:23 36.073638 -115.141449 270 2088ft 122kts
14-Feb-18 15:24 36.075257 -115.156199 317 2140ft 0kts
14-Feb-18 15:25 36.076396 -115.157426 314 2142ft 17kts
14-Feb-18 15:26 36.078022 -115.155396 89 2131ft 16kts
14-Feb-18 15:27 36.077888 -115.149055 94 2106ft 8kts
14-Feb-18 15:28 36.078446 -115.146223 94 2097ft 13kts
14-Feb-18 15:29 36.078588 -115.139892 49 2076ft 17kts
14-Feb-18 15:30 36.080437 -115.138231 321 2065ft 4kts
14-Feb-18 15:31 36.080694 -115.138519 316 2066ft 0kts

Navigation Log

Ident Type
Flight plan parsing failed, navigation log unavailable